sensor_id;sensor_type;location;lat;lon;timestamp;P1;durP1;ratioP1;P2;durP2;ratioP2
5507;SDS011;2776;51.046;6.772;2023-07-31T00:02:19;10.37;;;4.07;;
5507;SDS011;2776;51.046;6.772;2023-07-31T00:04:46;8.83;;;3.50;;
5507;SDS011;2776;51.046;6.772;2023-07-31T00:07:14;5.90;;;3.73;;
5507;SDS011;2776;51.046;6.772;2023-07-31T00:09:40;5.97;;;3.70;;
5507;SDS011;2776;51.046;6.772;2023-07-31T00:12:07;10.10;;;3.90;;
5507;SDS011;2776;51.046;6.772;2023-07-31T00:14:35;6.20;;;3.27;;
5507;SDS011;2776;51.046;6.772;2023-07-31T00:17:02;8.00;;;3.80;;
5507;SDS011;2776;51.046;6.772;2023-07-31T00:19:29;6.93;;;3.30;;
5507;SDS011;2776;51.046;6.772;2023-07-31T00:21:56;6.90;;;3.83;;
5507;SDS011;2776;51.046;6.772;2023-07-31T00:24:23;7.03;;;3.53;;
5507;SDS011;2776;51.046;6.772;2023-07-31T00:26:50;7.60;;;3.90;;
5507;SDS011;2776;51.046;6.772;2023-07-31T00:29:16;10.40;;;3.60;;
5507;SDS011;2776;51.046;6.772;2023-07-31T00:31:44;8.03;;;4.00;;
5507;SDS011;2776;51.046;6.772;2023-07-31T00:34:11;7.97;;;3.77;;
5507;SDS011;2776;51.046;6.772;2023-07-31T00:36:38;6.50;;;3.17;;
5507;SDS011;2776;51.046;6.772;2023-07-31T00:39:04;8.73;;;3.70;;
5507;SDS011;2776;51.046;6.772;2023-07-31T00:41:31;11.47;;;4.07;;
5507;SDS011;2776;51.046;6.772;2023-07-31T00:43:58;8.73;;;3.60;;
5507;SDS011;2776;51.046;6.772;2023-07-31T00:46:25;5.80;;;3.67;;
5507;SDS011;2776;51.046;6.772;2023-07-31T00:48:53;6.93;;;3.70;;
5507;SDS011;2776;51.046;6.772;2023-07-31T00:51:20;7.27;;;3.50;;
5507;SDS011;2776;51.046;6.772;2023-07-31T00:53:47;7.70;;;3.50;;
5507;SDS011;2776;51.046;6.772;2023-07-31T00:56:14;7.73;;;3.47;;
5507;SDS011;2776;51.046;6.772;2023-07-31T00:58:41;8.07;;;3.33;;
5507;SDS011;2776;51.046;6.772;2023-07-31T01:01:08;7.23;;;3.80;;
5507;SDS011;2776;51.046;6.772;2023-07-31T01:03:35;7.17;;;3.03;;
5507;SDS011;2776;51.046;6.772;2023-07-31T01:06:07;6.37;;;3.20;;
5507;SDS011;2776;51.046;6.772;2023-07-31T01:08:42;5.33;;;2.70;;
5507;SDS011;2776;51.046;6.772;2023-07-31T01:11:19;6.33;;;3.30;;
5507;SDS011;2776;51.046;6.772;2023-07-31T01:13:51;7.83;;;3.30;;
5507;SDS011;2776;51.046;6.772;2023-07-31T01:16:19;5.37;;;3.10;;
5507;SDS011;2776;51.046;6.772;2023-07-31T01:18:46;8.50;;;3.20;;
5507;SDS011;2776;51.046;6.772;2023-07-31T01:21:20;8.07;;;3.23;;
5507;SDS011;2776;51.046;6.772;2023-07-31T01:24:07;6.70;;;3.20;;
5507;SDS011;2776;51.046;6.772;2023-07-31T01:26:49;6.33;;;3.10;;
5507;SDS011;2776;51.046;6.772;2023-07-31T01:29:23;6.40;;;3.50;;
5507;SDS011;2776;51.046;6.772;2023-07-31T01:31:55;8.30;;;3.33;;
5507;SDS011;2776;51.046;6.772;2023-07-31T01:34:24;8.33;;;3.90;;
5507;SDS011;2776;51.046;6.772;2023-07-31T01:36:53;7.70;;;3.53;;
5507;SDS011;2776;51.046;6.772;2023-07-31T01:39:20;8.23;;;3.70;;
5507;SDS011;2776;51.046;6.772;2023-07-31T01:41:46;6.33;;;3.00;;
5507;SDS011;2776;51.046;6.772;2023-07-31T01:44:14;8.00;;;3.70;;
5507;SDS011;2776;51.046;6.772;2023-07-31T01:46:41;12.00;;;3.60;;
5507;SDS011;2776;51.046;6.772;2023-07-31T01:49:08;10.23;;;3.67;;
5507;SDS011;2776;51.046;6.772;2023-07-31T01:51:35;9.27;;;3.77;;
5507;SDS011;2776;51.046;6.772;2023-07-31T01:54:01;7.33;;;3.53;;
5507;SDS011;2776;51.046;6.772;2023-07-31T01:56:28;9.97;;;3.17;;
5507;SDS011;2776;51.046;6.772;2023-07-31T01:58:56;8.30;;;3.20;;
5507;SDS011;2776;51.046;6.772;2023-07-31T02:01:23;8.77;;;3.50;;
5507;SDS011;2776;51.046;6.772;2023-07-31T02:03:50;7.07;;;3.73;;
5507;SDS011;2776;51.046;6.772;2023-07-31T02:06:17;6.97;;;3.40;;
5507;SDS011;2776;51.046;6.772;2023-07-31T02:08:44;6.53;;;3.40;;
5507;SDS011;2776;51.046;6.772;2023-07-31T02:11:11;7.07;;;3.30;;
5507;SDS011;2776;51.046;6.772;2023-07-31T02:13:37;6.93;;;3.30;;
5507;SDS011;2776;51.046;6.772;2023-07-31T02:16:06;10.40;;;4.23;;
5507;SDS011;2776;51.046;6.772;2023-07-31T02:18:32;7.63;;;3.30;;
5507;SDS011;2776;51.046;6.772;2023-07-31T02:20:59;8.17;;;3.87;;
5507;SDS011;2776;51.046;6.772;2023-07-31T02:23:26;7.70;;;3.47;;
5507;SDS011;2776;51.046;6.772;2023-07-31T02:25:52;8.53;;;3.67;;
5507;SDS011;2776;51.046;6.772;2023-07-31T02:28:19;9.43;;;3.33;;
5507;SDS011;2776;51.046;6.772;2023-07-31T02:30:46;7.37;;;3.47;;
5507;SDS011;2776;51.046;6.772;2023-07-31T02:33:14;8.17;;;3.83;;
5507;SDS011;2776;51.046;6.772;2023-07-31T02:35:41;7.93;;;3.00;;
5507;SDS011;2776;51.046;6.772;2023-07-31T02:38:08;6.33;;;3.53;;
5507;SDS011;2776;51.046;6.772;2023-07-31T02:40:34;7.13;;;3.27;;
5507;SDS011;2776;51.046;6.772;2023-07-31T02:43:01;11.93;;;3.67;;
5507;SDS011;2776;51.046;6.772;2023-07-31T02:45:28;7.10;;;3.77;;
5507;SDS011;2776;51.046;6.772;2023-07-31T02:47:55;6.77;;;3.40;;
5507;SDS011;2776;51.046;6.772;2023-07-31T02:50:23;5.03;;;3.53;;
5507;SDS011;2776;51.046;6.772;2023-07-31T02:52:49;7.30;;;3.63;;
5507;SDS011;2776;51.046;6.772;2023-07-31T02:55:16;9.83;;;3.67;;
5507;SDS011;2776;51.046;6.772;2023-07-31T02:57:43;11.67;;;5.10;;
5507;SDS011;2776;51.046;6.772;2023-07-31T03:00:10;10.07;;;4.07;;
5507;SDS011;2776;51.046;6.772;2023-07-31T03:02:37;10.30;;;3.80;;
5507;SDS011;2776;51.046;6.772;2023-07-31T03:05:03;8.17;;;3.60;;
5507;SDS011;2776;51.046;6.772;2023-07-31T03:07:32;8.23;;;3.50;;
5507;SDS011;2776;51.046;6.772;2023-07-31T03:09:58;7.20;;;3.77;;
5507;SDS011;2776;51.046;6.772;2023-07-31T03:12:25;8.03;;;3.60;;
5507;SDS011;2776;51.046;6.772;2023-07-31T03:14:52;6.57;;;3.67;;
5507;SDS011;2776;51.046;6.772;2023-07-31T03:17:19;9.73;;;3.80;;
5507;SDS011;2776;51.046;6.772;2023-07-31T03:19:45;10.63;;;3.60;;
5507;SDS011;2776;51.046;6.772;2023-07-31T03:22:12;9.60;;;3.50;;
5507;SDS011;2776;51.046;6.772;2023-07-31T03:24:40;5.93;;;3.57;;
5507;SDS011;2776;51.046;6.772;2023-07-31T03:27:07;8.33;;;5.23;;
5507;SDS011;2776;51.046;6.772;2023-07-31T03:29:34;8.97;;;3.80;;
5507;SDS011;2776;51.046;6.772;2023-07-31T03:32:00;9.03;;;4.23;;
5507;SDS011;2776;51.046;6.772;2023-07-31T03:34:27;9.93;;;4.43;;
5507;SDS011;2776;51.046;6.772;2023-07-31T03:36:54;7.40;;;4.07;;
5507;SDS011;2776;51.046;6.772;2023-07-31T03:39:20;6.10;;;3.53;;
5507;SDS011;2776;51.046;6.772;2023-07-31T03:41:49;6.53;;;3.60;;
5507;SDS011;2776;51.046;6.772;2023-07-31T03:44:15;8.80;;;4.43;;
5507;SDS011;2776;51.046;6.772;2023-07-31T03:46:42;8.20;;;4.20;;
5507;SDS011;2776;51.046;6.772;2023-07-31T03:49:09;7.57;;;3.87;;
5507;SDS011;2776;51.046;6.772;2023-07-31T03:51:35;6.90;;;4.07;;
5507;SDS011;2776;51.046;6.772;2023-07-31T03:54:02;8.67;;;3.70;;
5507;SDS011;2776;51.046;6.772;2023-07-31T03:56:29;10.90;;;4.57;;
5507;SDS011;2776;51.046;6.772;2023-07-31T03:58:57;6.23;;;3.53;;
5507;SDS011;2776;51.046;6.772;2023-07-31T04:01:24;10.43;;;4.73;;
5507;SDS011;2776;51.046;6.772;2023-07-31T04:03:50;9.17;;;3.53;;
5507;SDS011;2776;51.046;6.772;2023-07-31T04:06:17;6.67;;;3.90;;
5507;SDS011;2776;51.046;6.772;2023-07-31T04:08:44;7.83;;;4.00;;
5507;SDS011;2776;51.046;6.772;2023-07-31T04:11:11;7.00;;;3.90;;
5507;SDS011;2776;51.046;6.772;2023-07-31T04:13:37;10.17;;;3.87;;
5507;SDS011;2776;51.046;6.772;2023-07-31T04:16:05;6.97;;;3.93;;
5507;SDS011;2776;51.046;6.772;2023-07-31T04:18:32;8.93;;;4.33;;
5507;SDS011;2776;51.046;6.772;2023-07-31T04:20:59;11.87;;;4.60;;
5507;SDS011;2776;51.046;6.772;2023-07-31T04:23:27;9.73;;;4.50;;
5507;SDS011;2776;51.046;6.772;2023-07-31T04:25:54;11.60;;;4.67;;
5507;SDS011;2776;51.046;6.772;2023-07-31T04:28:21;7.60;;;4.43;;
5507;SDS011;2776;51.046;6.772;2023-07-31T04:30:47;10.40;;;4.63;;
5507;SDS011;2776;51.046;6.772;2023-07-31T04:33:15;9.33;;;4.77;;
5507;SDS011;2776;51.046;6.772;2023-07-31T04:35:48;9.10;;;4.13;;
5507;SDS011;2776;51.046;6.772;2023-07-31T04:38:17;7.87;;;4.30;;
5507;SDS011;2776;51.046;6.772;2023-07-31T04:40:44;11.40;;;4.32;;
5507;SDS011;2776;51.046;6.772;2023-07-31T04:43:10;8.97;;;4.00;;
5507;SDS011;2776;51.046;6.772;2023-07-31T04:45:37;6.50;;;4.00;;
5507;SDS011;2776;51.046;6.772;2023-07-31T04:48:04;7.80;;;4.13;;
5507;SDS011;2776;51.046;6.772;2023-07-31T04:50:32;8.60;;;3.87;;
5507;SDS011;2776;51.046;6.772;2023-07-31T04:52:59;8.00;;;4.33;;
5507;SDS011;2776;51.046;6.772;2023-07-31T04:55:25;6.07;;;4.17;;
5507;SDS011;2776;51.046;6.772;2023-07-31T04:57:52;7.67;;;5.37;;
5507;SDS011;2776;51.046;6.772;2023-07-31T05:00:19;8.53;;;4.60;;
5507;SDS011;2776;51.046;6.772;2023-07-31T05:02:46;11.43;;;3.95;;
5507;SDS011;2776;51.046;6.772;2023-07-31T05:05:13;7.32;;;3.70;;
5507;SDS011;2776;51.046;6.772;2023-07-31T05:07:41;6.57;;;4.40;;
5507;SDS011;2776;51.046;6.772;2023-07-31T05:10:08;6.30;;;4.10;;
5507;SDS011;2776;51.046;6.772;2023-07-31T05:12:35;9.97;;;4.27;;
5507;SDS011;2776;51.046;6.772;2023-07-31T05:15:01;7.80;;;3.83;;
5507;SDS011;2776;51.046;6.772;2023-07-31T05:17:28;6.22;;;3.83;;
5507;SDS011;2776;51.046;6.772;2023-07-31T05:19:55;6.45;;;3.70;;
5507;SDS011;2776;51.046;6.772;2023-07-31T05:22:22;7.23;;;4.07;;
5507;SDS011;2776;51.046;6.772;2023-07-31T05:24:50;6.40;;;4.05;;
5507;SDS011;2776;51.046;6.772;2023-07-31T05:27:19;6.97;;;4.07;;
5507;SDS011;2776;51.046;6.772;2023-07-31T05:29:45;6.50;;;3.70;;
5507;SDS011;2776;51.046;6.772;2023-07-31T05:32:12;5.23;;;3.03;;
5507;SDS011;2776;51.046;6.772;2023-07-31T05:34:39;6.20;;;3.83;;
5507;SDS011;2776;51.046;6.772;2023-07-31T05:37:05;6.03;;;4.03;;
5507;SDS011;2776;51.046;6.772;2023-07-31T05:39:32;5.13;;;3.58;;
5507;SDS011;2776;51.046;6.772;2023-07-31T05:42:00;4.45;;;3.05;;
5507;SDS011;2776;51.046;6.772;2023-07-31T05:44:27;8.17;;;4.20;;
5507;SDS011;2776;51.046;6.772;2023-07-31T05:46:54;6.37;;;3.60;;
5507;SDS011;2776;51.046;6.772;2023-07-31T05:49:20;4.70;;;3.40;;
5507;SDS011;2776;51.046;6.772;2023-07-31T05:51:47;5.20;;;3.50;;
5507;SDS011;2776;51.046;6.772;2023-07-31T05:54:14;6.53;;;3.45;;
5507;SDS011;2776;51.046;6.772;2023-07-31T05:56:40;5.83;;;3.80;;
5507;SDS011;2776;51.046;6.772;2023-07-31T05:59:09;5.88;;;3.83;;
5507;SDS011;2776;51.046;6.772;2023-07-31T06:01:38;5.07;;;3.23;;
5507;SDS011;2776;51.046;6.772;2023-07-31T06:04:05;7.50;;;3.50;;
5507;SDS011;2776;51.046;6.772;2023-07-31T06:06:31;8.53;;;3.50;;
5507;SDS011;2776;51.046;6.772;2023-07-31T06:08:58;5.53;;;3.80;;
5507;SDS011;2776;51.046;6.772;2023-07-31T06:11:25;4.57;;;3.43;;
5507;SDS011;2776;51.046;6.772;2023-07-31T06:13:52;5.73;;;3.70;;
5507;SDS011;2776;51.046;6.772;2023-07-31T06:16:20;7.97;;;3.63;;
5507;SDS011;2776;51.046;6.772;2023-07-31T06:18:47;6.15;;;3.78;;
5507;SDS011;2776;51.046;6.772;2023-07-31T06:21:14;5.65;;;3.33;;
5507;SDS011;2776;51.046;6.772;2023-07-31T06:23:41;6.40;;;3.63;;
5507;SDS011;2776;51.046;6.772;2023-07-31T06:26:07;6.53;;;3.10;;
5507;SDS011;2776;51.046;6.772;2023-07-31T06:28:34;7.30;;;4.03;;
5507;SDS011;2776;51.046;6.772;2023-07-31T06:31:01;5.45;;;3.42;;
5507;SDS011;2776;51.046;6.772;2023-07-31T06:33:29;6.15;;;3.50;;
5507;SDS011;2776;51.046;6.772;2023-07-31T06:35:56;8.33;;;3.90;;
5507;SDS011;2776;51.046;6.772;2023-07-31T06:38:24;6.43;;;3.53;;
5507;SDS011;2776;51.046;6.772;2023-07-31T06:40:52;5.50;;;3.63;;
5507;SDS011;2776;51.046;6.772;2023-07-31T06:43:18;6.50;;;3.50;;
5507;SDS011;2776;51.046;6.772;2023-07-31T06:45:45;4.68;;;3.17;;
5507;SDS011;2776;51.046;6.772;2023-07-31T06:48:15;5.85;;;3.35;;
5507;SDS011;2776;51.046;6.772;2023-07-31T06:50:43;5.37;;;2.93;;
5507;SDS011;2776;51.046;6.772;2023-07-31T06:53:10;5.75;;;3.20;;
5507;SDS011;2776;51.046;6.772;2023-07-31T06:55:36;6.65;;;3.80;;
5507;SDS011;2776;51.046;6.772;2023-07-31T06:58:03;6.50;;;3.20;;
5507;SDS011;2776;51.046;6.772;2023-07-31T07:00:30;7.57;;;2.95;;
5507;SDS011;2776;51.046;6.772;2023-07-31T07:02:57;4.15;;;2.85;;
5507;SDS011;2776;51.046;6.772;2023-07-31T07:05:24;4.88;;;3.47;;
5507;SDS011;2776;51.046;6.772;2023-07-31T07:07:52;5.53;;;3.10;;
5507;SDS011;2776;51.046;6.772;2023-07-31T07:10:19;5.88;;;3.40;;
5507;SDS011;2776;51.046;6.772;2023-07-31T07:12:46;5.85;;;2.95;;
5507;SDS011;2776;51.046;6.772;2023-07-31T07:15:12;5.75;;;3.22;;
5507;SDS011;2776;51.046;6.772;2023-07-31T07:17:39;5.25;;;3.03;;
5507;SDS011;2776;51.046;6.772;2023-07-31T07:20:07;7.47;;;3.05;;
5507;SDS011;2776;51.046;6.772;2023-07-31T07:22:34;6.15;;;3.28;;
5507;SDS011;2776;51.046;6.772;2023-07-31T07:25:02;5.95;;;3.28;;
5507;SDS011;2776;51.046;6.772;2023-07-31T07:27:29;7.03;;;3.08;;
5507;SDS011;2776;51.046;6.772;2023-07-31T07:29:56;12.13;;;3.45;;
5507;SDS011;2776;51.046;6.772;2023-07-31T07:32:23;5.28;;;3.70;;
5507;SDS011;2776;51.046;6.772;2023-07-31T07:34:50;5.38;;;3.08;;
5507;SDS011;2776;51.046;6.772;2023-07-31T07:37:17;4.90;;;3.28;;
5507;SDS011;2776;51.046;6.772;2023-07-31T07:39:43;5.90;;;3.00;;
5507;SDS011;2776;51.046;6.772;2023-07-31T07:42:12;6.63;;;3.57;;
5507;SDS011;2776;51.046;6.772;2023-07-31T07:44:38;6.63;;;3.30;;
5507;SDS011;2776;51.046;6.772;2023-07-31T07:47:05;7.97;;;3.30;;
5507;SDS011;2776;51.046;6.772;2023-07-31T07:49:32;5.10;;;3.30;;
5507;SDS011;2776;51.046;6.772;2023-07-31T07:52:00;6.47;;;3.43;;
5507;SDS011;2776;51.046;6.772;2023-07-31T07:54:27;4.95;;;2.95;;
5507;SDS011;2776;51.046;6.772;2023-07-31T07:56:53;5.90;;;3.33;;
5507;SDS011;2776;51.046;6.772;2023-07-31T07:59:21;6.50;;;3.27;;
5507;SDS011;2776;51.046;6.772;2023-07-31T08:01:48;4.65;;;3.05;;
5507;SDS011;2776;51.046;6.772;2023-07-31T08:04:15;6.00;;;3.05;;
5507;SDS011;2776;51.046;6.772;2023-07-31T08:06:42;6.53;;;2.83;;
5507;SDS011;2776;51.046;6.772;2023-07-31T08:09:08;4.50;;;2.70;;
5507;SDS011;2776;51.046;6.772;2023-07-31T08:11:35;4.47;;;2.77;;
5507;SDS011;2776;51.046;6.772;2023-07-31T08:14:02;7.10;;;3.17;;
5507;SDS011;2776;51.046;6.772;2023-07-31T08:16:30;5.80;;;3.17;;
5507;SDS011;2776;51.046;6.772;2023-07-31T08:18:57;3.57;;;2.87;;
5507;SDS011;2776;51.046;6.772;2023-07-31T08:21:24;6.27;;;3.53;;
5507;SDS011;2776;51.046;6.772;2023-07-31T08:23:50;5.68;;;3.30;;
5507;SDS011;2776;51.046;6.772;2023-07-31T08:26:17;6.47;;;3.40;;
5507;SDS011;2776;51.046;6.772;2023-07-31T08:28:45;4.82;;;2.92;;
5507;SDS011;2776;51.046;6.772;2023-07-31T08:31:12;5.28;;;2.38;;
5507;SDS011;2776;51.046;6.772;2023-07-31T08:33:40;5.25;;;2.47;;
5507;SDS011;2776;51.046;6.772;2023-07-31T08:36:07;4.45;;;3.08;;
5507;SDS011;2776;51.046;6.772;2023-07-31T08:38:34;6.07;;;2.60;;
5507;SDS011;2776;51.046;6.772;2023-07-31T08:41:02;4.95;;;3.10;;
5507;SDS011;2776;51.046;6.772;2023-07-31T08:43:29;4.20;;;2.72;;
5507;SDS011;2776;51.046;6.772;2023-07-31T08:45:57;4.78;;;2.83;;
5507;SDS011;2776;51.046;6.772;2023-07-31T08:48:24;4.38;;;2.88;;
5507;SDS011;2776;51.046;6.772;2023-07-31T08:50:53;5.45;;;2.30;;
5507;SDS011;2776;51.046;6.772;2023-07-31T08:53:19;3.97;;;2.58;;
5507;SDS011;2776;51.046;6.772;2023-07-31T08:55:46;3.38;;;2.33;;
5507;SDS011;2776;51.046;6.772;2023-07-31T08:58:14;5.43;;;2.53;;
5507;SDS011;2776;51.046;6.772;2023-07-31T09:00:43;4.60;;;2.63;;
5507;SDS011;2776;51.046;6.772;2023-07-31T09:03:12;3.43;;;2.73;;
5507;SDS011;2776;51.046;6.772;2023-07-31T09:05:42;3.30;;;2.58;;
5507;SDS011;2776;51.046;6.772;2023-07-31T09:08:11;5.55;;;2.80;;
5507;SDS011;2776;51.046;6.772;2023-07-31T09:10:40;4.10;;;2.70;;
5507;SDS011;2776;51.046;6.772;2023-07-31T09:13:08;4.03;;;2.78;;
5507;SDS011;2776;51.046;6.772;2023-07-31T09:15:35;4.57;;;2.70;;
5507;SDS011;2776;51.046;6.772;2023-07-31T09:18:03;4.00;;;2.70;;
5507;SDS011;2776;51.046;6.772;2023-07-31T09:20:31;4.22;;;2.67;;
5507;SDS011;2776;51.046;6.772;2023-07-31T09:23:04;5.15;;;2.67;;
5507;SDS011;2776;51.046;6.772;2023-07-31T09:25:34;6.68;;;2.70;;
5507;SDS011;2776;51.046;6.772;2023-07-31T09:28:02;6.30;;;3.20;;
5507;SDS011;2776;51.046;6.772;2023-07-31T09:30:30;3.90;;;3.08;;
5507;SDS011;2776;51.046;6.772;2023-07-31T09:33:09;9.70;;;2.78;;
5507;SDS011;2776;51.046;6.772;2023-07-31T09:35:36;4.88;;;3.13;;
5507;SDS011;2776;51.046;6.772;2023-07-31T09:38:06;5.70;;;2.58;;
5507;SDS011;2776;51.046;6.772;2023-07-31T09:40:35;4.28;;;2.72;;
5507;SDS011;2776;51.046;6.772;2023-07-31T09:43:03;6.65;;;2.50;;
5507;SDS011;2776;51.046;6.772;2023-07-31T09:45:33;4.95;;;2.70;;
5507;SDS011;2776;51.046;6.772;2023-07-31T09:48:01;5.15;;;3.00;;
5507;SDS011;2776;51.046;6.772;2023-07-31T09:50:29;5.68;;;3.25;;
5507;SDS011;2776;51.046;6.772;2023-07-31T09:52:56;4.85;;;3.03;;
5507;SDS011;2776;51.046;6.772;2023-07-31T09:55:23;5.25;;;3.03;;
5507;SDS011;2776;51.046;6.772;2023-07-31T09:57:51;8.63;;;3.20;;
5507;SDS011;2776;51.046;6.772;2023-07-31T10:00:20;4.30;;;2.70;;
5507;SDS011;2776;51.046;6.772;2023-07-31T10:02:50;4.65;;;2.92;;
5507;SDS011;2776;51.046;6.772;2023-07-31T10:05:17;7.32;;;2.85;;
5507;SDS011;2776;51.046;6.772;2023-07-31T10:07:46;4.55;;;2.33;;
5507;SDS011;2776;51.046;6.772;2023-07-31T10:10:18;5.05;;;2.75;;
5507;SDS011;2776;51.046;6.772;2023-07-31T10:12:46;5.25;;;2.70;;
5507;SDS011;2776;51.046;6.772;2023-07-31T10:15:15;8.73;;;3.08;;
5507;SDS011;2776;51.046;6.772;2023-07-31T10:17:43;3.67;;;2.45;;
5507;SDS011;2776;51.046;6.772;2023-07-31T10:20:11;4.65;;;2.90;;
5507;SDS011;2776;51.046;6.772;2023-07-31T10:22:38;5.03;;;2.80;;
5507;SDS011;2776;51.046;6.772;2023-07-31T10:25:06;5.60;;;2.97;;
5507;SDS011;2776;51.046;6.772;2023-07-31T10:27:34;4.28;;;3.00;;
5507;SDS011;2776;51.046;6.772;2023-07-31T10:30:02;4.82;;;3.17;;
5507;SDS011;2776;51.046;6.772;2023-07-31T10:32:32;4.75;;;3.53;;
5507;SDS011;2776;51.046;6.772;2023-07-31T10:35:00;5.55;;;3.03;;
5507;SDS011;2776;51.046;6.772;2023-07-31T10:37:30;5.93;;;3.47;;
5507;SDS011;2776;51.046;6.772;2023-07-31T10:40:03;6.55;;;2.90;;
5507;SDS011;2776;51.046;6.772;2023-07-31T10:42:32;5.45;;;2.95;;
5507;SDS011;2776;51.046;6.772;2023-07-31T10:45:00;5.22;;;2.90;;
5507;SDS011;2776;51.046;6.772;2023-07-31T10:47:28;3.78;;;2.58;;
5507;SDS011;2776;51.046;6.772;2023-07-31T10:50:13;5.05;;;2.50;;
5507;SDS011;2776;51.046;6.772;2023-07-31T10:52:43;6.35;;;2.65;;
5507;SDS011;2776;51.046;6.772;2023-07-31T10:55:16;4.13;;;2.10;;
5507;SDS011;2776;51.046;6.772;2023-07-31T10:57:54;4.05;;;2.03;;
5507;SDS011;2776;51.046;6.772;2023-07-31T11:00:22;2.42;;;1.38;;
5507;SDS011;2776;51.046;6.772;2023-07-31T11:02:57;5.25;;;1.42;;
5507;SDS011;2776;51.046;6.772;2023-07-31T11:05:46;4.00;;;1.80;;
5507;SDS011;2776;51.046;6.772;2023-07-31T11:08:15;1.45;;;1.30;;
5507;SDS011;2776;51.046;6.772;2023-07-31T11:10:44;2.15;;;1.55;;
5507;SDS011;2776;51.046;6.772;2023-07-31T11:13:12;3.17;;;1.60;;
5507;SDS011;2776;51.046;6.772;2023-07-31T11:15:39;2.83;;;1.48;;
5507;SDS011;2776;51.046;6.772;2023-07-31T11:18:06;1.85;;;1.02;;
5507;SDS011;2776;51.046;6.772;2023-07-31T11:20:33;1.40;;;1.10;;
5507;SDS011;2776;51.046;6.772;2023-07-31T11:23:02;3.33;;;1.33;;
5507;SDS011;2776;51.046;6.772;2023-07-31T11:25:31;1.95;;;1.20;;
5507;SDS011;2776;51.046;6.772;2023-07-31T11:28:01;3.08;;;1.13;;
5507;SDS011;2776;51.046;6.772;2023-07-31T11:30:29;1.88;;;1.02;;
5507;SDS011;2776;51.046;6.772;2023-07-31T11:32:56;1.38;;;1.10;;
5507;SDS011;2776;51.046;6.772;2023-07-31T11:35:23;1.88;;;1.30;;
5507;SDS011;2776;51.046;6.772;2023-07-31T11:37:50;1.45;;;1.10;;
5507;SDS011;2776;51.046;6.772;2023-07-31T11:40:18;2.38;;;1.23;;
5507;SDS011;2776;51.046;6.772;2023-07-31T11:42:45;3.00;;;1.30;;
5507;SDS011;2776;51.046;6.772;2023-07-31T11:45:11;1.95;;;1.10;;
5507;SDS011;2776;51.046;6.772;2023-07-31T11:47:38;2.33;;;0.70;;
5507;SDS011;2776;51.046;6.772;2023-07-31T11:50:06;1.92;;;1.05;;
5507;SDS011;2776;51.046;6.772;2023-07-31T11:52:36;1.20;;;0.80;;
5507;SDS011;2776;51.046;6.772;2023-07-31T11:55:07;1.35;;;1.05;;
5507;SDS011;2776;51.046;6.772;2023-07-31T11:57:37;1.38;;;1.08;;
5507;SDS011;2776;51.046;6.772;2023-07-31T12:00:06;1.85;;;1.30;;
5507;SDS011;2776;51.046;6.772;2023-07-31T12:02:36;1.85;;;1.13;;
5507;SDS011;2776;51.046;6.772;2023-07-31T12:05:04;2.28;;;1.20;;
5507;SDS011;2776;51.046;6.772;2023-07-31T12:07:42;2.22;;;1.30;;
5507;SDS011;2776;51.046;6.772;2023-07-31T12:10:22;3.38;;;1.27;;
5507;SDS011;2776;51.046;6.772;2023-07-31T12:12:58;3.22;;;1.80;;
5507;SDS011;2776;51.046;6.772;2023-07-31T12:15:33;2.45;;;1.83;;
5507;SDS011;2776;51.046;6.772;2023-07-31T12:18:04;3.85;;;1.75;;
5507;SDS011;2776;51.046;6.772;2023-07-31T12:20:31;2.55;;;1.42;;
5507;SDS011;2776;51.046;6.772;2023-07-31T12:22:58;2.10;;;1.88;;
5507;SDS011;2776;51.046;6.772;2023-07-31T12:25:29;1.80;;;1.70;;
5507;SDS011;2776;51.046;6.772;2023-07-31T12:27:58;2.20;;;1.83;;
5507;SDS011;2776;51.046;6.772;2023-07-31T12:30:31;4.05;;;2.42;;
5507;SDS011;2776;51.046;6.772;2023-07-31T12:33:02;4.72;;;2.40;;
5507;SDS011;2776;51.046;6.772;2023-07-31T12:35:34;3.03;;;2.15;;
5507;SDS011;2776;51.046;6.772;2023-07-31T12:38:02;3.08;;;1.98;;
5507;SDS011;2776;51.046;6.772;2023-07-31T12:40:29;4.30;;;2.33;;
5507;SDS011;2776;51.046;6.772;2023-07-31T12:42:57;3.45;;;2.38;;
5507;SDS011;2776;51.046;6.772;2023-07-31T12:45:26;3.47;;;2.35;;
5507;SDS011;2776;51.046;6.772;2023-07-31T12:47:53;6.55;;;2.67;;
5507;SDS011;2776;51.046;6.772;2023-07-31T12:50:20;3.00;;;2.70;;
5507;SDS011;2776;51.046;6.772;2023-07-31T12:52:47;5.78;;;2.70;;
5507;SDS011;2776;51.046;6.772;2023-07-31T12:55:14;3.33;;;2.60;;
5507;SDS011;2776;51.046;6.772;2023-07-31T12:57:41;4.13;;;2.63;;
5507;SDS011;2776;51.046;6.772;2023-07-31T13:00:10;5.72;;;2.65;;
5507;SDS011;2776;51.046;6.772;2023-07-31T13:02:37;4.78;;;2.55;;
5507;SDS011;2776;51.046;6.772;2023-07-31T13:05:04;3.70;;;2.70;;
5507;SDS011;2776;51.046;6.772;2023-07-31T13:07:31;4.55;;;2.55;;
5507;SDS011;2776;51.046;6.772;2023-07-31T13:09:58;4.95;;;2.47;;
5507;SDS011;2776;51.046;6.772;2023-07-31T13:12:25;3.10;;;2.58;;
5507;SDS011;2776;51.046;6.772;2023-07-31T13:14:51;4.18;;;2.42;;
5507;SDS011;2776;51.046;6.772;2023-07-31T13:17:20;2.85;;;2.35;;
5507;SDS011;2776;51.046;6.772;2023-07-31T13:19:46;3.78;;;2.70;;
5507;SDS011;2776;51.046;6.772;2023-07-31T13:22:13;3.13;;;2.00;;
5507;SDS011;2776;51.046;6.772;2023-07-31T13:24:40;3.90;;;2.03;;
5507;SDS011;2776;51.046;6.772;2023-07-31T13:27:07;4.45;;;2.65;;
5507;SDS011;2776;51.046;6.772;2023-07-31T13:29:34;2.75;;;2.20;;
5507;SDS011;2776;51.046;6.772;2023-07-31T13:32:01;2.20;;;2.00;;
5507;SDS011;2776;51.046;6.772;2023-07-31T13:34:29;3.00;;;2.30;;
5507;SDS011;2776;51.046;6.772;2023-07-31T13:36:56;5.30;;;2.10;;
5507;SDS011;2776;51.046;6.772;2023-07-31T13:39:22;3.97;;;2.13;;
5507;SDS011;2776;51.046;6.772;2023-07-31T13:41:49;2.47;;;2.00;;
5507;SDS011;2776;51.046;6.772;2023-07-31T13:44:16;2.90;;;2.10;;
5507;SDS011;2776;51.046;6.772;2023-07-31T13:46:42;2.20;;;1.98;;
5507;SDS011;2776;51.046;6.772;2023-07-31T13:49:09;3.65;;;2.00;;
5507;SDS011;2776;51.046;6.772;2023-07-31T13:51:37;3.22;;;2.03;;
5507;SDS011;2776;51.046;6.772;2023-07-31T13:54:04;3.40;;;2.35;;
5507;SDS011;2776;51.046;6.772;2023-07-31T13:56:32;3.38;;;2.40;;
5507;SDS011;2776;51.046;6.772;2023-07-31T13:58:59;2.42;;;1.80;;
5507;SDS011;2776;51.046;6.772;2023-07-31T14:01:26;2.50;;;2.10;;
5507;SDS011;2776;51.046;6.772;2023-07-31T14:03:53;3.05;;;2.05;;
5507;SDS011;2776;51.046;6.772;2023-07-31T14:06:19;3.75;;;2.22;;
5507;SDS011;2776;51.046;6.772;2023-07-31T14:08:47;3.45;;;2.22;;
5507;SDS011;2776;51.046;6.772;2023-07-31T14:11:14;3.50;;;1.95;;
5507;SDS011;2776;51.046;6.772;2023-07-31T14:13:41;2.88;;;2.10;;
5507;SDS011;2776;51.046;6.772;2023-07-31T14:16:08;4.15;;;2.60;;
5507;SDS011;2776;51.046;6.772;2023-07-31T14:18:34;3.75;;;2.20;;
5507;SDS011;2776;51.046;6.772;2023-07-31T14:21:01;3.15;;;2.38;;
5507;SDS011;2776;51.046;6.772;2023-07-31T14:23:28;3.15;;;2.70;;
5507;SDS011;2776;51.046;6.772;2023-07-31T14:25:56;2.25;;;2.05;;
5507;SDS011;2776;51.046;6.772;2023-07-31T14:28:23;2.88;;;2.38;;
5507;SDS011;2776;51.046;6.772;2023-07-31T14:30:49;3.25;;;2.25;;
5507;SDS011;2776;51.046;6.772;2023-07-31T14:33:16;2.75;;;2.45;;
5507;SDS011;2776;51.046;6.772;2023-07-31T14:35:43;3.83;;;2.78;;
5507;SDS011;2776;51.046;6.772;2023-07-31T14:38:10;3.92;;;2.80;;
5507;SDS011;2776;51.046;6.772;2023-07-31T14:40:36;7.70;;;3.42;;
5507;SDS011;2776;51.046;6.772;2023-07-31T14:43:04;5.22;;;3.45;;
5507;SDS011;2776;51.046;6.772;2023-07-31T14:45:31;5.65;;;3.42;;
5507;SDS011;2776;51.046;6.772;2023-07-31T14:47:58;4.18;;;3.42;;
5507;SDS011;2776;51.046;6.772;2023-07-31T14:50:25;4.68;;;3.50;;
5507;SDS011;2776;51.046;6.772;2023-07-31T14:52:52;3.28;;;2.83;;
5507;SDS011;2776;51.046;6.772;2023-07-31T14:55:19;4.13;;;3.05;;
5507;SDS011;2776;51.046;6.772;2023-07-31T14:57:45;4.68;;;3.50;;
5507;SDS011;2776;51.046;6.772;2023-07-31T15:00:14;3.90;;;3.20;;
5507;SDS011;2776;51.046;6.772;2023-07-31T15:02:41;6.15;;;3.17;;
5507;SDS011;2776;51.046;6.772;2023-07-31T15:05:08;4.55;;;3.10;;
5507;SDS011;2776;51.046;6.772;2023-07-31T15:07:35;3.78;;;3.03;;
5507;SDS011;2776;51.046;6.772;2023-07-31T15:10:02;4.72;;;3.15;;
5507;SDS011;2776;51.046;6.772;2023-07-31T15:12:29;3.58;;;2.95;;
5507;SDS011;2776;51.046;6.772;2023-07-31T15:14:56;3.45;;;3.00;;
5507;SDS011;2776;51.046;6.772;2023-07-31T15:17:24;3.28;;;2.97;;
5507;SDS011;2776;51.046;6.772;2023-07-31T15:19:51;4.97;;;3.08;;